sensor_id;sensor_type;location;lat;lon;timestamp;temperature;humidity
14555;DHT22;7364;50.870;4.722;2023-04-09T00:01:07;10.60;99.90
14555;DHT22;7364;50.870;4.722;2023-04-09T00:03:35;10.60;99.90
14555;DHT22;7364;50.870;4.722;2023-04-09T00:06:04;10.60;99.90
14555;DHT22;7364;50.870;4.722;2023-04-09T00:08:31;10.50;99.90
14555;DHT22;7364;50.870;4.722;2023-04-09T00:10:59;10.30;99.90
14555;DHT22;7364;50.870;4.722;2023-04-09T00:13:26;10.10;99.90
14555;DHT22;7364;50.870;4.722;2023-04-09T00:15:53;10.00;99.90
14555;DHT22;7364;50.870;4.722;2023-04-09T00:18:22;9.90;99.90
14555;DHT22;7364;50.870;4.722;2023-04-09T00:20:49;10.00;99.90
14555;DHT22;7364;50.870;4.722;2023-04-09T00:23:16;10.10;99.90
14555;DHT22;7364;50.870;4.722;2023-04-09T00:25:43;10.10;99.90
14555;DHT22;7364;50.870;4.722;2023-04-09T00:28:11;10.10;99.90
14555;DHT22;7364;50.870;4.722;2023-04-09T00:30:38;10.20;99.90
14555;DHT22;7364;50.870;4.722;2023-04-09T00:33:05;10.30;99.90
14555;DHT22;7364;50.870;4.722;2023-04-09T00:35:34;10.40;99.90
14555;DHT22;7364;50.870;4.722;2023-04-09T00:38:01;10.40;99.90
14555;DHT22;7364;50.870;4.722;2023-04-09T00:40:28;10.30;99.90
14555;DHT22;7364;50.870;4.722;2023-04-09T00:42:56;10.30;99.90
14555;DHT22;7364;50.870;4.722;2023-04-09T00:45:23;10.20;99.90
14555;DHT22;7364;50.870;4.722;2023-04-09T00:47:50;10.20;99.90
14555;DHT22;7364;50.870;4.722;2023-04-09T00:50:18;10.10;99.90
14555;DHT22;7364;50.870;4.722;2023-04-09T00:52:47;10.20;99.90
14555;DHT22;7364;50.870;4.722;2023-04-09T00:55:14;10.20;99.90
14555;DHT22;7364;50.870;4.722;2023-04-09T00:57:43;10.20;99.90
14555;DHT22;7364;50.870;4.722;2023-04-09T01:00:12;10.10;99.90
14555;DHT22;7364;50.870;4.722;2023-04-09T01:02:40;9.90;99.90
14555;DHT22;7364;50.870;4.722;2023-04-09T01:05:08;9.60;99.90
14555;DHT22;7364;50.870;4.722;2023-04-09T01:07:45;9.40;99.90
14555;DHT22;7364;50.870;4.722;2023-04-09T01:10:20;9.10;99.90
14555;DHT22;7364;50.870;4.722;2023-04-09T01:13:00;8.90;99.90
14555;DHT22;7364;50.870;4.722;2023-04-09T01:15:33;8.90;99.90
14555;DHT22;7364;50.870;4.722;2023-04-09T01:18:06;9.00;99.90
14555;DHT22;7364;50.870;4.722;2023-04-09T01:20:36;9.20;99.90
14555;DHT22;7364;50.870;4.722;2023-04-09T01:23:15;9.20;99.90
14555;DHT22;7364;50.870;4.722;2023-04-09T01:25:53;9.40;99.90
14555;DHT22;7364;50.870;4.722;2023-04-09T01:28:31;9.50;99.90
14555;DHT22;7364;50.870;4.722;2023-04-09T01:31:01;9.60;99.90
14555;DHT22;7364;50.870;4.722;2023-04-09T01:33:30;9.60;99.90
14555;DHT22;7364;50.870;4.722;2023-04-09T01:35:59;9.40;99.90
14555;DHT22;7364;50.870;4.722;2023-04-09T01:38:27;9.30;99.90
14555;DHT22;7364;50.870;4.722;2023-04-09T01:40:54;9.20;99.90
14555;DHT22;7364;50.870;4.722;2023-04-09T01:43:23;9.20;99.90
14555;DHT22;7364;50.870;4.722;2023-04-09T01:45:53;9.10;99.90
14555;DHT22;7364;50.870;4.722;2023-04-09T01:48:21;9.20;99.90
14555;DHT22;7364;50.870;4.722;2023-04-09T01:50:50;9.20;99.90
14555;DHT22;7364;50.870;4.722;2023-04-09T01:53:17;9.10;99.90
14555;DHT22;7364;50.870;4.722;2023-04-09T01:55:45;9.10;99.90
14555;DHT22;7364;50.870;4.722;2023-04-09T01:58:12;8.90;99.90
14555;DHT22;7364;50.870;4.722;2023-04-09T02:00:44;8.80;99.90
14555;DHT22;7364;50.870;4.722;2023-04-09T02:03:17;8.80;99.90
14555;DHT22;7364;50.870;4.722;2023-04-09T02:05:54;9.10;99.90
14555;DHT22;7364;50.870;4.722;2023-04-09T02:08:23;9.30;99.90
14555;DHT22;7364;50.870;4.722;2023-04-09T02:10:55;9.30;99.90
14555;DHT22;7364;50.870;4.722;2023-04-09T02:13:25;9.40;99.90
14555;DHT22;7364;50.870;4.722;2023-04-09T02:15:53;9.30;99.90
14555;DHT22;7364;50.870;4.722;2023-04-09T02:18:26;9.30;99.90
14555;DHT22;7364;50.870;4.722;2023-04-09T02:20:55;9.30;99.90
14555;DHT22;7364;50.870;4.722;2023-04-09T02:23:23;9.10;99.90
14555;DHT22;7364;50.870;4.722;2023-04-09T02:25:52;8.90;99.90
14555;DHT22;7364;50.870;4.722;2023-04-09T02:28:19;8.50;99.90
14555;DHT22;7364;50.870;4.722;2023-04-09T02:30:46;8.30;99.90
14555;DHT22;7364;50.870;4.722;2023-04-09T02:33:14;8.30;99.90
14555;DHT22;7364;50.870;4.722;2023-04-09T02:35:43;8.50;99.90
14555;DHT22;7364;50.870;4.722;2023-04-09T02:38:10;8.60;99.90
14555;DHT22;7364;50.870;4.722;2023-04-09T02:40:39;8.70;99.90
14555;DHT22;7364;50.870;4.722;2023-04-09T02:43:07;8.70;99.90
14555;DHT22;7364;50.870;4.722;2023-04-09T02:45:35;8.60;99.90
14555;DHT22;7364;50.870;4.722;2023-04-09T02:48:04;8.50;99.90
14555;DHT22;7364;50.870;4.722;2023-04-09T02:50:32;8.50;99.90
14555;DHT22;7364;50.870;4.722;2023-04-09T02:53:01;8.40;99.90
14555;DHT22;7364;50.870;4.722;2023-04-09T02:55:29;8.30;99.90
14555;DHT22;7364;50.870;4.722;2023-04-09T02:57:56;8.30;99.90
14555;DHT22;7364;50.870;4.722;2023-04-09T03:00:26;8.20;99.90
14555;DHT22;7364;50.870;4.722;2023-04-09T03:02:54;8.10;99.90
14555;DHT22;7364;50.870;4.722;2023-04-09T03:05:21;8.00;99.90
14555;DHT22;7364;50.870;4.722;2023-04-09T03:07:48;8.00;99.90
14555;DHT22;7364;50.870;4.722;2023-04-09T03:10:17;7.80;99.90
14555;DHT22;7364;50.870;4.722;2023-04-09T03:12:44;7.80;99.90
14555;DHT22;7364;50.870;4.722;2023-04-09T03:15:13;7.80;99.90
14555;DHT22;7364;50.870;4.722;2023-04-09T03:17:40;7.80;99.90
14555;DHT22;7364;50.870;4.722;2023-04-09T03:20:07;7.70;99.90
14555;DHT22;7364;50.870;4.722;2023-04-09T03:22:35;7.70;99.90
14555;DHT22;7364;50.870;4.722;2023-04-09T03:25:04;7.90;99.90
14555;DHT22;7364;50.870;4.722;2023-04-09T03:27:33;8.10;99.90
14555;DHT22;7364;50.870;4.722;2023-04-09T03:30:04;8.20;99.90
14555;DHT22;7364;50.870;4.722;2023-04-09T03:32:31;8.50;99.90
14555;DHT22;7364;50.870;4.722;2023-04-09T03:34:58;8.50;99.90
14555;DHT22;7364;50.870;4.722;2023-04-09T03:37:26;8.30;99.90
14555;DHT22;7364;50.870;4.722;2023-04-09T03:39:53;8.30;99.90
14555;DHT22;7364;50.870;4.722;2023-04-09T03:42:21;8.20;99.90
14555;DHT22;7364;50.870;4.722;2023-04-09T03:44:52;8.10;99.90
14555;DHT22;7364;50.870;4.722;2023-04-09T03:47:19;8.10;99.90
14555;DHT22;7364;50.870;4.722;2023-04-09T03:49:47;8.20;99.90
14555;DHT22;7364;50.870;4.722;2023-04-09T03:52:14;8.30;99.90
14555;DHT22;7364;50.870;4.722;2023-04-09T03:54:41;8.50;99.90
14555;DHT22;7364;50.870;4.722;2023-04-09T03:57:09;8.50;99.90
14555;DHT22;7364;50.870;4.722;2023-04-09T03:59:36;8.50;99.90
14555;DHT22;7364;50.870;4.722;2023-04-09T04:02:05;8.40;99.90
14555;DHT22;7364;50.870;4.722;2023-04-09T04:04:32;8.50;99.90
14555;DHT22;7364;50.870;4.722;2023-04-09T04:06:59;8.30;99.90
14555;DHT22;7364;50.870;4.722;2023-04-09T04:09:28;8.30;99.90
14555;DHT22;7364;50.870;4.722;2023-04-09T04:11:56;8.30;99.90
14555;DHT22;7364;50.870;4.722;2023-04-09T04:14:23;8.00;99.90
14555;DHT22;7364;50.870;4.722;2023-04-09T04:16:50;7.70;99.90
14555;DHT22;7364;50.870;4.722;2023-04-09T04:19:19;7.40;99.90
14555;DHT22;7364;50.870;4.722;2023-04-09T04:21:46;7.30;99.90
14555;DHT22;7364;50.870;4.722;2023-04-09T04:24:14;7.40;99.90
14555;DHT22;7364;50.870;4.722;2023-04-09T04:26:41;7.50;99.90
14555;DHT22;7364;50.870;4.722;2023-04-09T04:29:08;7.60;99.90
14555;DHT22;7364;50.870;4.722;2023-04-09T04:31:36;7.80;99.90
14555;DHT22;7364;50.870;4.722;2023-04-09T04:34:03;8.00;99.90
14555;DHT22;7364;50.870;4.722;2023-04-09T04:36:32;8.00;99.90
14555;DHT22;7364;50.870;4.722;2023-04-09T04:38:59;7.90;99.90
14555;DHT22;7364;50.870;4.722;2023-04-09T04:41:26;8.00;99.90
14555;DHT22;7364;50.870;4.722;2023-04-09T04:43:54;7.80;99.90
14555;DHT22;7364;50.870;4.722;2023-04-09T04:46:22;7.80;99.90
14555;DHT22;7364;50.870;4.722;2023-04-09T04:48:49;7.70;99.90
14555;DHT22;7364;50.870;4.722;2023-04-09T04:51:16;7.90;99.90
14555;DHT22;7364;50.870;4.722;2023-04-09T04:53:46;7.90;99.90
14555;DHT22;7364;50.870;4.722;2023-04-09T04:56:14;7.80;99.90
14555;DHT22;7364;50.870;4.722;2023-04-09T04:58:41;7.70;99.90
14555;DHT22;7364;50.870;4.722;2023-04-09T05:01:08;7.50;99.90
14555;DHT22;7364;50.870;4.722;2023-04-09T05:03:36;7.50;99.90
14555;DHT22;7364;50.870;4.722;2023-04-09T05:06:03;7.80;99.90
14555;DHT22;7364;50.870;4.722;2023-04-09T05:08:30;7.90;99.90
14555;DHT22;7364;50.870;4.722;2023-04-09T05:10:59;7.90;99.90
14555;DHT22;7364;50.870;4.722;2023-04-09T05:13:26;8.00;99.90
14555;DHT22;7364;50.870;4.722;2023-04-09T05:15:54;8.10;99.90
14555;DHT22;7364;50.870;4.722;2023-04-09T05:18:21;8.20;99.90
14555;DHT22;7364;50.870;4.722;2023-04-09T05:20:48;8.10;99.90
14555;DHT22;7364;50.870;4.722;2023-04-09T05:23:16;8.00;99.90
14555;DHT22;7364;50.870;4.722;2023-04-09T05:25:43;7.90;99.90
14555;DHT22;7364;50.870;4.722;2023-04-09T05:28:12;7.90;99.90
14555;DHT22;7364;50.870;4.722;2023-04-09T05:30:39;7.70;99.90
14555;DHT22;7364;50.870;4.722;2023-04-09T05:33:06;7.60;99.90
14555;DHT22;7364;50.870;4.722;2023-04-09T05:35:38;7.30;99.90
14555;DHT22;7364;50.870;4.722;2023-04-09T05:38:05;7.20;99.90
14555;DHT22;7364;50.870;4.722;2023-04-09T05:40:33;7.10;99.90
14555;DHT22;7364;50.870;4.722;2023-04-09T05:43:00;7.00;99.90
14555;DHT22;7364;50.870;4.722;2023-04-09T05:45:29;6.90;99.90
14555;DHT22;7364;50.870;4.722;2023-04-09T05:47:56;6.90;99.90
14555;DHT22;7364;50.870;4.722;2023-04-09T05:50:24;6.90;99.90
14555;DHT22;7364;50.870;4.722;2023-04-09T05:52:51;7.00;99.90
14555;DHT22;7364;50.870;4.722;2023-04-09T05:55:19;7.10;99.90
14555;DHT22;7364;50.870;4.722;2023-04-09T05:57:47;7.20;99.90
14555;DHT22;7364;50.870;4.722;2023-04-09T06:00:16;7.30;99.90
14555;DHT22;7364;50.870;4.722;2023-04-09T06:02:45;7.50;99.90
14555;DHT22;7364;50.870;4.722;2023-04-09T06:05:12;7.80;99.90
14555;DHT22;7364;50.870;4.722;2023-04-09T06:07:39;8.10;99.90
14555;DHT22;7364;50.870;4.722;2023-04-09T06:10:07;8.20;99.90
14555;DHT22;7364;50.870;4.722;2023-04-09T06:12:35;8.10;99.90
14555;DHT22;7364;50.870;4.722;2023-04-09T06:15:03;8.20;99.90
14555;DHT22;7364;50.870;4.722;2023-04-09T06:17:30;8.00;99.90
14555;DHT22;7364;50.870;4.722;2023-04-09T06:19:59;7.80;99.90
14555;DHT22;7364;50.870;4.722;2023-04-09T06:22:26;8.00;99.90
14555;DHT22;7364;50.870;4.722;2023-04-09T06:24:54;8.40;99.90
14555;DHT22;7364;50.870;4.722;2023-04-09T06:27:21;8.60;99.90
14555;DHT22;7364;50.870;4.722;2023-04-09T06:29:48;8.80;99.90
14555;DHT22;7364;50.870;4.722;2023-04-09T06:32:16;8.80;99.90
14555;DHT22;7364;50.870;4.722;2023-04-09T06:34:43;8.90;99.90
14555;DHT22;7364;50.870;4.722;2023-04-09T06:37:16;8.90;99.90
14555;DHT22;7364;50.870;4.722;2023-04-09T06:39:43;8.90;99.90
14555;DHT22;7364;50.870;4.722;2023-04-09T06:42:11;8.90;99.90
14555;DHT22;7364;50.870;4.722;2023-04-09T06:44:38;9.00;99.90
14555;DHT22;7364;50.870;4.722;2023-04-09T06:47:05;9.20;99.90
14555;DHT22;7364;50.870;4.722;2023-04-09T06:49:34;9.00;99.90
14555;DHT22;7364;50.870;4.722;2023-04-09T06:52:01;9.00;99.90
14555;DHT22;7364;50.870;4.722;2023-04-09T06:54:30;8.80;99.90
14555;DHT22;7364;50.870;4.722;2023-04-09T06:56:57;9.10;99.90
14555;DHT22;7364;50.870;4.722;2023-04-09T06:59:25;9.20;99.90
14555;DHT22;7364;50.870;4.722;2023-04-09T07:01:52;9.50;99.90
14555;DHT22;7364;50.870;4.722;2023-04-09T07:04:19;9.60;99.90
14555;DHT22;7364;50.870;4.722;2023-04-09T07:06:47;9.70;99.90
14555;DHT22;7364;50.870;4.722;2023-04-09T07:09:14;9.90;99.90
14555;DHT22;7364;50.870;4.722;2023-04-09T07:11:44;9.90;99.90
14555;DHT22;7364;50.870;4.722;2023-04-09T07:14:11;10.00;99.90
14555;DHT22;7364;50.870;4.722;2023-04-09T07:16:38;10.10;99.90
14555;DHT22;7364;50.870;4.722;2023-04-09T07:19:05;10.10;99.90
14555;DHT22;7364;50.870;4.722;2023-04-09T07:21:33;10.30;99.90
14555;DHT22;7364;50.870;4.722;2023-04-09T07:24:00;10.50;99.90
14555;DHT22;7364;50.870;4.722;2023-04-09T07:26:28;10.70;99.90
14555;DHT22;7364;50.870;4.722;2023-04-09T07:28:57;10.70;99.90
14555;DHT22;7364;50.870;4.722;2023-04-09T07:31:24;10.90;99.90
14555;DHT22;7364;50.870;4.722;2023-04-09T07:33:51;11.10;99.90
14555;DHT22;7364;50.870;4.722;2023-04-09T07:36:19;11.00;99.90
14555;DHT22;7364;50.870;4.722;2023-04-09T07:38:46;10.70;99.90
14555;DHT22;7364;50.870;4.722;2023-04-09T07:41:13;10.70;99.90
14555;DHT22;7364;50.870;4.722;2023-04-09T07:43:41;11.00;99.90
14555;DHT22;7364;50.870;4.722;2023-04-09T07:46:10;11.10;99.90
14555;DHT22;7364;50.870;4.722;2023-04-09T07:48:37;11.30;99.90
14555;DHT22;7364;50.870;4.722;2023-04-09T07:51:04;11.50;99.90
14555;DHT22;7364;50.870;4.722;2023-04-09T07:53:31;11.50;99.90
14555;DHT22;7364;50.870;4.722;2023-04-09T07:55:59;11.60;99.90
14555;DHT22;7364;50.870;4.722;2023-04-09T07:58:26;11.80;99.90
14555;DHT22;7364;50.870;4.722;2023-04-09T08:00:53;11.80;99.90
14555;DHT22;7364;50.870;4.722;2023-04-09T08:03:22;12.10;99.90
14555;DHT22;7364;50.870;4.722;2023-04-09T08:05:50;12.30;99.90
14555;DHT22;7364;50.870;4.722;2023-04-09T08:08:17;12.40;99.90
14555;DHT22;7364;50.870;4.722;2023-04-09T08:10:44;12.10;99.90
14555;DHT22;7364;50.870;4.722;2023-04-09T08:13:12;12.40;99.90
14555;DHT22;7364;50.870;4.722;2023-04-09T08:15:40;12.60;99.90
14555;DHT22;7364;50.870;4.722;2023-04-09T08:18:07;12.30;99.90
14555;DHT22;7364;50.870;4.722;2023-04-09T08:20:37;12.30;99.90
14555;DHT22;7364;50.870;4.722;2023-04-09T08:23:12;12.70;99.90
14555;DHT22;7364;50.870;4.722;2023-04-09T08:25:39;12.20;99.90
14555;DHT22;7364;50.870;4.722;2023-04-09T08:28:09;12.10;99.90
14555;DHT22;7364;50.870;4.722;2023-04-09T08:30:37;12.20;99.90
14555;DHT22;7364;50.870;4.722;2023-04-09T08:33:04;12.10;99.90
14555;DHT22;7364;50.870;4.722;2023-04-09T08:35:32;12.00;99.90
14555;DHT22;7364;50.870;4.722;2023-04-09T08:38:01;12.00;99.90
14555;DHT22;7364;50.870;4.722;2023-04-09T08:40:33;12.30;99.90
14555;DHT22;7364;50.870;4.722;2023-04-09T08:43:04;12.60;99.90
14555;DHT22;7364;50.870;4.722;2023-04-09T08:45:33;12.60;99.90
14555;DHT22;7364;50.870;4.722;2023-04-09T08:48:02;12.60;99.90
14555;DHT22;7364;50.870;4.722;2023-04-09T08:50:46;12.20;99.90
14555;DHT22;7364;50.870;4.722;2023-04-09T08:53:16;12.10;99.90
14555;DHT22;7364;50.870;4.722;2023-04-09T08:55:47;12.30;99.90
14555;DHT22;7364;50.870;4.722;2023-04-09T08:58:14;12.40;99.90
14555;DHT22;7364;50.870;4.722;2023-04-09T09:00:42;12.50;99.90
14555;DHT22;7364;50.870;4.722;2023-04-09T09:03:10;12.20;99.90
14555;DHT22;7364;50.870;4.722;2023-04-09T09:05:40;12.20;99.90
14555;DHT22;7364;50.870;4.722;2023-04-09T09:08:08;12.30;99.90
14555;DHT22;7364;50.870;4.722;2023-04-09T09:10:41;12.40;99.90
14555;DHT22;7364;50.870;4.722;2023-04-09T09:13:21;12.40;99.90
14555;DHT22;7364;50.870;4.722;2023-04-09T09:15:53;12.50;99.90
14555;DHT22;7364;50.870;4.722;2023-04-09T09:18:36;13.10;99.90
14555;DHT22;7364;50.870;4.722;2023-04-09T09:21:09;13.10;99.90
14555;DHT22;7364;50.870;4.722;2023-04-09T09:23:38;13.60;99.90
14555;DHT22;7364;50.870;4.722;2023-04-09T09:26:12;13.50;99.90
14555;DHT22;7364;50.870;4.722;2023-04-09T09:28:41;13.30;99.90
14555;DHT22;7364;50.870;4.722;2023-04-09T09:31:09;13.10;99.90
14555;DHT22;7364;50.870;4.722;2023-04-09T09:33:36;12.90;99.90
14555;DHT22;7364;50.870;4.722;2023-04-09T09:36:04;12.50;99.90
14555;DHT22;7364;50.870;4.722;2023-04-09T09:38:32;13.10;99.90
14555;DHT22;7364;50.870;4.722;2023-04-09T09:41:16;13.80;99.90
14555;DHT22;7364;50.870;4.722;2023-04-09T09:43:44;13.50;99.90
14555;DHT22;7364;50.870;4.722;2023-04-09T09:46:12;13.60;99.90
14555;DHT22;7364;50.870;4.722;2023-04-09T09:48:39;14.00;99.90
14555;DHT22;7364;50.870;4.722;2023-04-09T09:51:08;14.80;99.90
14555;DHT22;7364;50.870;4.722;2023-04-09T09:53:38;15.30;99.90
14555;DHT22;7364;50.870;4.722;2023-04-09T09:56:06;15.40;99.90
14555;DHT22;7364;50.870;4.722;2023-04-09T09:58:46;15.40;99.90
14555;DHT22;7364;50.870;4.722;2023-04-09T10:01:16;16.10;99.90
14555;DHT22;7364;50.870;4.722;2023-04-09T10:03:46;16.60;99.90
14555;DHT22;7364;50.870;4.722;2023-04-09T10:06:15;17.30;99.90
14555;DHT22;7364;50.870;4.722;2023-04-09T10:08:43;17.70;99.90
14555;DHT22;7364;50.870;4.722;2023-04-09T10:11:12;17.90;99.90
14555;DHT22;7364;50.870;4.722;2023-04-09T10:13:45;17.80;99.90
14555;DHT22;7364;50.870;4.722;2023-04-09T10:16:15;17.40;99.90
14555;DHT22;7364;50.870;4.722;2023-04-09T10:18:43;16.70;99.90
14555;DHT22;7364;50.870;4.722;2023-04-09T10:21:16;17.70;99.90
14555;DHT22;7364;50.870;4.722;2023-04-09T10:23:48;18.90;99.50
14555;DHT22;7364;50.870;4.722;2023-04-09T10:26:17;19.70;97.70
14555;DHT22;7364;50.870;4.722;2023-04-09T10:28:46;19.90;96.80
14555;DHT22;7364;50.870;4.722;2023-04-09T10:31:13;19.50;96.20
14555;DHT22;7364;50.870;4.722;2023-04-09T10:33:42;19.40;96.70
14555;DHT22;7364;50.870;4.722;2023-04-09T10:36:11;20.20;96.10
14555;DHT22;7364;50.870;4.722;2023-04-09T10:38:44;20.70;95.00
14555;DHT22;7364;50.870;4.722;2023-04-09T10:41:33;20.80;94.50
14555;DHT22;7364;50.870;4.722;2023-04-09T10:44:05;21.10;94.00
14555;DHT22;7364;50.870;4.722;2023-04-09T10:46:34;21.20;94.00
14555;DHT22;7364;50.870;4.722;2023-04-09T10:49:09;21.60;92.80
14555;DHT22;7364;50.870;4.722;2023-04-09T10:51:37;21.80;92.30
14555;DHT22;7364;50.870;4.722;2023-04-09T10:54:04;22.10;92.40
14555;DHT22;7364;50.870;4.722;2023-04-09T10:56:32;21.90;91.70
14555;DHT22;7364;50.870;4.722;2023-04-09T10:59:01;22.30;91.20
14555;DHT22;7364;50.870;4.722;2023-04-09T11:01:29;22.80;90.80
14555;DHT22;7364;50.870;4.722;2023-04-09T11:04:16;23.10;90.30
14555;DHT22;7364;50.870;4.722;2023-04-09T11:06:47;22.50;91.00
14555;DHT22;7364;50.870;4.722;2023-04-09T11:09:15;22.80;90.10
14555;DHT22;7364;50.870;4.722;2023-04-09T11:11:42;22.40;90.10
14555;DHT22;7364;50.870;4.722;2023-04-09T11:14:18;22.80;89.20
14555;DHT22;7364;50.870;4.722;2023-04-09T11:16:46;23.60;87.20
14555;DHT22;7364;50.870;4.722;2023-04-09T11:19:14;24.10;86.30
14555;DHT22;7364;50.870;4.722;2023-04-09T11:21:41;24.10;83.50
14555;DHT22;7364;50.870;4.722;2023-04-09T11:24:11;24.00;83.30
14555;DHT22;7364;50.870;4.722;2023-04-09T11:26:38;23.70;83.50
14555;DHT22;7364;50.870;4.722;2023-04-09T11:29:06;23.80;83.70
14555;DHT22;7364;50.870;4.722;2023-04-09T11:31:36;23.90;83.80
14555;DHT22;7364;50.870;4.722;2023-04-09T11:34:03;24.40;81.80
14555;DHT22;7364;50.870;4.722;2023-04-09T11:36:34;25.00;80.20
14555;DHT22;7364;50.870;4.722;2023-04-09T11:39:02;25.60;77.70
14555;DHT22;7364;50.870;4.722;2023-04-09T11:41:34;25.90;75.50
14555;DHT22;7364;50.870;4.722;2023-04-09T11:44:02;26.10;74.30
14555;DHT22;7364;50.870;4.722;2023-04-09T11:46:30;26.50;73.80
14555;DHT22;7364;50.870;4.722;2023-04-09T11:48:59;26.80;72.00
14555;DHT22;7364;50.870;4.722;2023-04-09T11:51:27;27.40;70.20
14555;DHT22;7364;50.870;4.722;2023-04-09T11:53:56;27.80;68.30
14555;DHT22;7364;50.870;4.722;2023-04-09T11:56:28;27.00;68.00
14555;DHT22;7364;50.870;4.722;2023-04-09T11:58:55;26.80;67.30
14555;DHT22;7364;50.870;4.722;2023-04-09T12:01:23;27.40;66.30
14555;DHT22;7364;50.870;4.722;2023-04-09T12:03:51;27.60;64.80
14555;DHT22;7364;50.870;4.722;2023-04-09T12:06:22;27.60;64.10
14555;DHT22;7364;50.870;4.722;2023-04-09T12:08:52;27.70;64.30
14555;DHT22;7364;50.870;4.722;2023-04-09T12:11:19;27.80;64.30
14555;DHT22;7364;50.870;4.722;2023-04-09T12:13:46;27.80;63.00
14555;DHT22;7364;50.870;4.722;2023-04-09T12:16:14;28.40;61.40
14555;DHT22;7364;50.870;4.722;2023-04-09T12:18:46;28.40;59.80
14555;DHT22;7364;50.870;4.722;2023-04-09T12:21:15;28.00;60.80
14555;DHT22;7364;50.870;4.722;2023-04-09T12:23:43;28.50;58.00
14555;DHT22;7364;50.870;4.722;2023-04-09T12:26:11;28.70;58.10
14555;DHT22;7364;50.870;4.722;2023-04-09T12:28:39;29.60;57.20
14555;DHT22;7364;50.870;4.722;2023-04-09T12:31:08;30.10;56.80
14555;DHT22;7364;50.870;4.722;2023-04-09T12:33:36;28.80;56.20
14555;DHT22;7364;50.870;4.722;2023-04-09T12:36:05;28.40;56.10
14555;DHT22;7364;50.870;4.722;2023-04-09T12:38:32;28.40;56.90
14555;DHT22;7364;50.870;4.722;2023-04-09T12:41:00;29.10;55.80
14555;DHT22;7364;50.870;4.722;2023-04-09T12:43:29;29.20;54.70
14555;DHT22;7364;50.870;4.722;2023-04-09T12:45:57;29.80;54.80
14555;DHT22;7364;50.870;4.722;2023-04-09T12:48:24;30.40;53.50
14555;DHT22;7364;50.870;4.722;2023-04-09T12:50:52;30.00;52.90
14555;DHT22;7364;50.870;4.722;2023-04-09T12:53:19;30.50;52.00
14555;DHT22;7364;50.870;4.722;2023-04-09T12:55:46;30.50;52.20
14555;DHT22;7364;50.870;4.722;2023-04-09T12:58:15;29.90;52.80
14555;DHT22;7364;50.870;4.722;2023-04-09T13:00:42;30.30;52.10
14555;DHT22;7364;50.870;4.722;2023-04-09T13:03:09;29.60;51.90
14555;DHT22;7364;50.870;4.722;2023-04-09T13:05:36;30.20;51.40
14555;DHT22;7364;50.870;4.722;2023-04-09T13:08:03;30.80;50.20
14555;DHT22;7364;50.870;4.722;2023-04-09T13:10:31;31.20;49.20
14555;DHT22;7364;50.870;4.722;2023-04-09T13:12:59;31.50;47.70
14555;DHT22;7364;50.870;4.722;2023-04-09T13:15:27;31.30;48.40
14555;DHT22;7364;50.870;4.722;2023-04-09T13:17:55;31.70;47.50
14555;DHT22;7364;50.870;4.722;2023-04-09T13:20:22;32.40;46.70
14555;DHT22;7364;50.870;4.722;2023-04-09T13:22:49;32.50;45.90
14555;DHT22;7364;50.870;4.722;2023-04-09T13:25:17;32.50;44.50
14555;DHT22;7364;50.870;4.722;2023-04-09T13:27:44;33.00;45.60
14555;DHT22;7364;50.870;4.722;2023-04-09T13:30:11;33.70;45.50
14555;DHT22;7364;50.870;4.722;2023-04-09T13:32:40;33.80;43.50
14555;DHT22;7364;50.870;4.722;2023-04-09T13:35:09;33.10;43.60
14555;DHT22;7364;50.870;4.722;2023-04-09T13:37:36;31.90;44.10
14555;DHT22;7364;50.870;4.722;2023-04-09T13:40:04;29.90;46.30
14555;DHT22;7364;50.870;4.722;2023-04-09T13:42:33;29.60;46.90
14555;DHT22;7364;50.870;4.722;2023-04-09T13:45:02;29.70;46.50
14555;DHT22;7364;50.870;4.722;2023-04-09T13:47:29;29.00;46.50
14555;DHT22;7364;50.870;4.722;2023-04-09T13:49:58;29.50;47.50
14555;DHT22;7364;50.870;4.722;2023-04-09T13:52:25;30.10;45.80
14555;DHT22;7364;50.870;4.722;2023-04-09T13:54:52;29.70;46.10
14555;DHT22;7364;50.870;4.722;2023-04-09T13:57:19;29.50;47.50
14555;DHT22;7364;50.870;4.722;2023-04-09T13:59:47;30.00;46.20
14555;DHT22;7364;50.870;4.722;2023-04-09T14:02:14;29.90;45.40
14555;DHT22;7364;50.870;4.722;2023-04-09T14:04:42;29.50;46.00
14555;DHT22;7364;50.870;4.722;2023-04-09T14:07:12;28.80;46.10
14555;DHT22;7364;50.870;4.722;2023-04-09T14:09:41;28.70;46.60
14555;DHT22;7364;50.870;4.722;2023-04-09T14:12:08;28.50;46.20
14555;DHT22;7364;50.870;4.722;2023-04-09T14:14:35;28.30;47.10
14555;DHT22;7364;50.870;4.722;2023-04-09T14:17:03;27.80;48.00
14555;DHT22;7364;50.870;4.722;2023-04-09T14:19:31;27.40;48.30
14555;DHT22;7364;50.870;4.722;2023-04-09T14:21:58;27.10;48.80
14555;DHT22;7364;50.870;4.722;2023-04-09T14:24:26;26.70;48.50
14555;DHT22;7364;50.870;4.722;2023-04-09T14:26:54;26.30;49.50
14555;DHT22;7364;50.870;4.722;2023-04-09T14:29:21;26.30;49.80
14555;DHT22;7364;50.870;4.722;2023-04-09T14:31:48;26.20;49.80
14555;DHT22;7364;50.870;4.722;2023-04-09T14:34:16;26.10;48.90
14555;DHT22;7364;50.870;4.722;2023-04-09T14:36:44;26.00;48.90
14555;DHT22;7364;50.870;4.722;2023-04-09T14:39:12;25.80;49.50
14555;DHT22;7364;50.870;4.722;2023-04-09T14:41:42;25.60;50.20
14555;DHT22;7364;50.870;4.722;2023-04-09T14:44:09;25.30;50.50
14555;DHT22;7364;50.870;4.722;2023-04-09T14:46:36;24.90;51.80
14555;DHT22;7364;50.870;4.722;2023-04-09T14:49:04;24.70;52.60
14555;DHT22;7364;50.870;4.722;2023-04-09T14:51:32;24.60;51.80
14555;DHT22;7364;50.870;4.722;2023-04-09T14:53:59;24.50;52.30
14555;DHT22;7364;50.870;4.722;2023-04-09T14:56:27;24.20;52.50
14555;DHT22;7364;50.870;4.722;2023-04-09T14:58:56;24.10;52.80
14555;DHT22;7364;50.870;4.722;2023-04-09T15:01:24;24.20;52.90
14555;DHT22;7364;50.870;4.722;2023-04-09T15:03:52;24.40;53.20
14555;DHT22;7364;50.870;4.722;2023-04-09T15:06:19;24.40;52.70
14555;DHT22;7364;50.870;4.722;2023-04-09T15:08:46;24.30;52.20
14555;DHT22;7364;50.870;4.722;2023-04-09T15:11:14;24.20;52.40
14555;DHT22;7364;50.870;4.722;2023-04-09T15:13:43;24.20;52.20
14555;DHT22;7364;50.870;4.722;2023-04-09T15:16:20;24.10;51.90
14555;DHT22;7364;50.870;4.722;2023-04-09T15:19:01;24.10;52.50
14555;DHT22;7364;50.870;4.722;2023-04-09T15:21:31;23.90;53.00
14555;DHT22;7364;50.870;4.722;2023-04-09T15:23:59;23.80;53.00
14555;DHT22;7364;50.870;4.722;2023-04-09T15:26:27;23.70;53.30
14555;DHT22;7364;50.870;4.722;2023-04-09T15:29:00;23.60;53.30
14555;DHT22;7364;50.870;4.722;2023-04-09T15:31:30;23.30;53.20
14555;DHT22;7364;50.870;4.722;2023-04-09T15:33:57;23.30;53.50
14555;DHT22;7364;50.870;4.722;2023-04-09T15:36:25;23.20;53.30
14555;DHT22;7364;50.870;4.722;2023-04-09T15:38:54;23.10;53.00
14555;DHT22;7364;50.870;4.722;2023-04-09T15:41:22;23.10;53.00
14555;DHT22;7364;50.870;4.722;2023-04-09T15:43:50;23.00;53.90
14555;DHT22;7364;50.870;4.722;2023-04-09T15:46:17;22.90;53.50
14555;DHT22;7364;50.870;4.722;2023-04-09T15:48:47;22.70;54.20
14555;DHT22;7364;50.870;4.722;2023-04-09T15:51:14;22.60;54.40
14555;DHT22;7364;50.870;4.722;2023-04-09T15:53:45;22.50;54.30
14555;DHT22;7364;50.870;4.722;2023-04-09T15:56:12;22.40;54.50
14555;DHT22;7364;50.870;4.722;2023-04-09T15:58:40;22.50;55.00
14555;DHT22;7364;50.870;4.722;2023-04-09T16:01:08;22.50;54.70